Terminal Aerodrome Forecast
Issued by NWS

Home | Current Version | Previous Version | Text Only | Print | Product List | Glossary On
Versions: 1 2 3 4 5 6 7 8 9 10 11 12 13 14 15 16 17 18 19 20 21
000
FTUS46 KOTX 190631 AAB
TAFPUW
TAF AMD
KPUW 190631Z 1907/2006 09005KT 1 1/2SM BR OVC002
     FM190800 25006KT 4SM BR VCSH BKN008 OVC025
     FM191100 25007KT P6SM OVC020
     FM191700 24010KT P6SM OVC035
     FM192000 24013G20KT P6SM BKN050 OVC100
     FM200100 16007KT P6SM SCT100=

USA.gov is the U.S. government's official web portal to all federal, state and local government web resources and services.